Time;durP1;ratioP1;P1;durP2;ratioP2;P2;SDS_P1;SDS_P2;PMS_P1;PMS_P2;Temp;Humidity;BMP_temperature;BMP_pressure;BME280_temperature;BME280_humidity;BME280_pressure;Samples;Min_cycle;Max_cycle;Signal;HPM_P1;HPM_P2
2023/03/23 00:00:36;;;;;;;2.92;2.08;;;;;;;12.32;63.13;97575.59;5056832;28;20078;-80
2023/03/23 00:03:02;;;;;;;3.15;1.98;;;;;;;12.31;61.32;97588.28;5041446;28;20064;-78
2023/03/23 00:05:28;;;;;;;3.60;2.00;;;;;;;12.24;64.09;97574.22;5030019;28;20060;-79
2023/03/23 00:07:55;;;;;;;2.63;1.85;;;;;;;12.17;63.62;97580.97;5039728;28;20036;-78
2023/03/23 00:10:20;;;;;;;2.05;1.77;;;;;;;12.19;63.56;97574.22;5021901;28;20028;-78
2023/03/23 00:12:49;;;;;;;2.55;2.00;;;;;;;12.10;64.44;97570.44;5037137;28;20045;-79
2023/03/23 00:15:16;;;;;;;5.28;2.70;;;;;;;12.03;64.66;97569.91;5037672;28;20074;-78
2023/03/23 00:17:43;;;;;;;3.55;2.47;;;;;;;12.04;64.36;97576.91;5034074;28;20097;-78
2023/03/23 00:20:11;;;;;;;2.67;2.28;;;;;;;12.03;64.51;97579.88;5054016;28;20017;-79
2023/03/23 00:22:37;;;;;;;4.78;2.90;;;;;;;11.99;63.79;97573.41;5045718;28;20248;-78
2023/03/23 00:25:03;;;;;;;3.85;2.85;;;;;;;11.92;64.10;97562.88;5029886;28;20372;-75
2023/03/23 00:27:29;;;;;;;4.38;3.15;;;;;;;11.84;64.67;97554.47;5031430;28;20032;-76
2023/03/23 00:29:55;;;;;;;4.18;3.08;;;;;;;11.96;64.14;97561.25;5061461;28;20021;-77
2023/03/23 00:32:28;;;;;;;4.43;3.25;;;;;;;11.88;64.37;97553.69;5038466;28;20032;-75
2023/03/23 00:35:00;;;;;;;4.43;2.67;;;;;;;11.84;64.16;97547.22;5028374;28;20028;-75
2023/03/23 00:37:26;;;;;;;4.50;2.95;;;;;;;11.83;64.75;97542.91;5048126;28;20029;-75
2023/03/23 00:39:57;;;;;;;4.20;3.10;;;;;;;11.90;64.01;97531.84;5045638;28;20021;-75
2023/03/23 00:42:23;;;;;;;4.43;3.30;;;;;;;11.77;65.21;97549.34;5041860;28;20047;-76
2023/03/23 00:44:48;;;;;;;4.22;3.22;;;;;;;11.70;64.99;97543.41;5025937;28;20022;-76
2023/03/23 00:47:15;;;;;;;5.45;3.00;;;;;;;11.78;64.46;97551.00;5030850;28;20041;-76
2023/03/23 00:49:40;;;;;;;3.35;2.90;;;;;;;11.66;65.41;97536.91;5030066;28;20418;-75
2023/03/23 00:52:06;;;;;;;4.78;3.10;;;;;;;11.57;65.53;97525.03;5024280;28;20039;-75
2023/03/23 00:54:33;;;;;;;6.53;3.20;;;;;;;11.71;65.12;97535.06;5042905;28;20475;-75
2023/03/23 00:56:59;;;;;;;3.53;2.85;;;;;;;11.71;64.31;97535.06;5048048;28;20483;-75
2023/03/23 00:59:25;;;;;;;5.82;2.80;;;;;;;11.57;65.03;97538.50;5046068;28;20067;-76
2023/03/23 01:01:50;;;;;;;5.03;3.10;;;;;;;11.49;65.69;97531.75;5032867;28;20089;-77
2023/03/23 01:04:16;;;;;;;5.53;3.50;;;;;;;11.58;64.81;97540.13;5028847;28;20494;-76
2023/03/23 01:06:44;;;;;;;6.65;3.80;;;;;;;11.60;65.28;97543.34;5040570;28;20035;-76
2023/03/23 01:09:16;;;;;;;5.63;3.38;;;;;;;11.59;64.99;97531.78;5041914;28;20021;-77
2023/03/23 01:11:42;;;;;;;5.32;3.00;;;;;;;11.52;64.49;97525.81;5047018;28;20132;-75
2023/03/23 01:14:09;;;;;;;4.60;3.10;;;;;;;11.56;65.32;97536.88;5046032;28;20111;-75
2023/03/23 01:16:34;;;;;;;5.53;3.30;;;;;;;11.56;64.99;97531.47;5017406;28;20036;-75
2023/03/23 01:18:59;;;;;;;5.13;3.30;;;;;;;11.57;64.89;97527.72;5033668;28;20029;-76
2023/03/23 01:21:25;;;;;;;5.65;3.50;;;;;;;11.63;63.75;97522.06;5039692;28;20028;-76
2023/03/23 01:23:51;;;;;;;4.28;3.45;;;;;;;11.58;64.12;97521.22;5036643;28;20032;-76
2023/03/23 01:26:19;;;;;;;4.03;3.42;;;;;;;11.57;64.27;97511.53;5040185;28;20045;-77
2023/03/23 01:28:45;;;;;;;4.25;3.28;;;;;;;11.56;64.71;97516.13;5058233;28;20036;-76
2023/03/23 01:31:13;;;;;;;5.68;3.70;;;;;;;11.55;64.67;97519.09;5036308;28;20036;-76
2023/03/23 01:33:40;;;;;;;4.75;3.47;;;;;;;11.55;64.51;97524.50;5040126;28;20025;-77
2023/03/23 01:36:10;;;;;;;4.45;3.92;;;;;;;11.47;65.29;97516.91;5039896;28;20593;-75
2023/03/23 01:38:35;;;;;;;7.15;3.45;;;;;;;11.48;65.24;97524.72;5040057;28;20024;-77
2023/03/23 01:41:01;;;;;;;5.78;3.60;;;;;;;11.48;65.20;97526.63;5064473;28;20021;-76
2023/03/23 01:43:27;;;;;;;4.88;3.47;;;;;;;11.51;65.78;97523.38;5035045;28;20120;-78
2023/03/23 01:45:53;;;;;;;6.00;3.45;;;;;;;11.38;65.73;97518.50;5072000;28;20059;-77
2023/03/23 01:48:23;;;;;;;7.88;4.07;;;;;;;11.31;65.53;97517.94;5043178;28;20032;-77
2023/03/23 01:50:58;;;;;;;6.07;3.72;;;;;;;11.41;65.53;97520.69;5030879;28;20191;-77
2023/03/23 01:53:29;;;;;;;7.35;3.83;;;;;;;11.47;65.15;97516.91;5048426;28;20494;-77
2023/03/23 01:55:55;;;;;;;4.47;3.30;;;;;;;11.54;64.86;97517.47;5045729;28;20037;-77
2023/03/23 01:58:25;;;;;;;6.38;3.42;;;;;;;11.55;64.77;97521.78;5049513;28;20475;-77
2023/03/23 02:00:54;;;;;;;7.25;4.03;;;;;;;11.40;65.28;97506.38;5050026;28;20032;-77
2023/03/23 02:03:20;;;;;;;4.45;3.50;;;;;;;11.53;64.83;97513.94;5044224;28;20024;-76
2023/03/23 02:05:45;;;;;;;6.05;3.58;;;;;;;11.45;65.41;97508.28;5046908;28;20025;-77
2023/03/23 02:08:28;;;;;;;6.47;3.80;;;;;;;11.39;64.68;97510.13;5050386;28;20025;-77
2023/03/23 02:10:54;;;;;;;6.18;3.55;;;;;;;11.52;65.07;97514.22;5049201;28;20040;-76
2023/03/23 02:13:19;;;;;;;6.75;4.07;;;;;;;11.41;65.75;97507.97;5038209;28;20145;-77
2023/03/23 02:16:04;;;;;;;6.60;3.88;;;;;;;11.44;66.00;97501.25;5032071;28;20032;-76
2023/03/23 02:18:39;;;;;;;7.88;4.38;;;;;;;11.47;65.46;97506.94;5049774;28;20025;-77
2023/03/23 02:21:23;;;;;;;5.03;3.28;;;;;;;11.52;64.95;97498.88;5033997;28;20052;-79
2023/03/23 02:24:26;;;;;;;5.65;3.30;;;;;;;11.47;64.76;97489.94;5067982;28;20497;-78
2023/03/23 02:26:57;;;;;;;4.97;3.38;;;;;;;11.51;65.12;97488.31;5039282;28;20036;-78
2023/03/23 02:29:36;;;;;;;5.65;3.40;;;;;;;11.45;64.39;97475.91;5043163;28;20565;-78
2023/03/23 02:32:19;;;;;;;5.55;3.53;;;;;;;11.54;65.06;97485.09;5043040;28;20037;-79
2023/03/23 02:34:49;;;;;;;6.28;3.35;;;;;;;11.57;64.51;97476.47;5046028;28;20108;-79
2023/03/23 02:37:28;;;;;;;4.93;3.22;;;;;;;11.51;64.56;97474.84;5071051;28;20032;-79
2023/03/23 02:40:23;;;;;;;4.78;3.45;;;;;;;11.53;64.56;97468.09;5044116;28;20029;-78
2023/03/23 02:42:51;;;;;;;6.40;3.35;;;;;;;11.61;63.50;97469.47;5034233;28;20037;-78
2023/03/23 02:45:17;;;;;;;6.65;3.10;;;;;;;11.56;63.73;97464.06;5049372;28;20027;-78
2023/03/23 02:47:45;;;;;;;6.43;3.17;;;;;;;11.56;63.80;97466.75;5053927;28;20096;-79
2023/03/23 02:50:13;;;;;;;4.60;3.10;;;;;;;11.54;63.51;97458.13;5040196;28;20447;-77
2023/03/23 02:52:40;;;;;;;5.10;2.97;;;;;;;11.55;63.98;97465.16;5036835;28;20059;-79
2023/03/23 02:55:07;;;;;;;4.30;2.75;;;;;;;11.59;63.94;97469.75;5049428;28;20028;-78
2023/03/23 02:57:33;;;;;;;4.60;2.83;;;;;;;11.58;64.08;97470.00;5036346;28;20036;-78
2023/03/23 03:00:01;;;;;;;3.63;2.75;;;;;;;11.58;63.20;97475.38;5042835;28;20045;-78
2023/03/23 03:02:32;;;;;;;6.93;3.05;;;;;;;11.66;63.31;97464.09;5036896;28;20489;-78
2023/03/23 03:05:18;;;;;;;5.15;2.90;;;;;;;11.64;62.91;97468.94;5029289;28;20081;-78
2023/03/23 03:08:02;;;;;;;5.07;2.67;;;;;;;11.63;63.13;97461.91;5045980;28;20032;-78
2023/03/23 03:10:40;;;;;;;5.40;2.85;;;;;;;11.65;63.03;97471.34;5047643;28;20642;-78
2023/03/23 03:13:45;;;;;;;6.03;2.90;;;;;;;11.60;62.78;97465.13;5051732;28;20402;-77
2023/03/23 03:16:24;;;;;;;2.70;2.38;;;;;;;11.59;63.57;97461.66;5026746;28;20515;-77
2023/03/23 03:19:07;;;;;;;3.15;2.50;;;;;;;11.64;62.89;97458.16;5055350;28;20032;-78
2023/03/23 03:21:36;;;;;;;2.75;2.30;;;;;;;11.58;63.09;97453.81;5030731;28;20041;-77
2023/03/23 03:24:03;;;;;;;3.50;2.47;;;;;;;11.60;63.14;97448.97;5040574;28;20115;-79
2023/03/23 03:26:30;;;;;;;4.97;2.90;;;;;;;11.58;63.09;97456.50;5039830;28;20036;-78
2023/03/23 03:29:01;;;;;;;4.95;3.22;;;;;;;11.58;62.98;97453.81;5025827;28;20581;-78
2023/03/23 03:31:30;;;;;;;4.15;2.80;;;;;;;11.62;62.85;97450.31;5029832;28;20033;-77
2023/03/23 03:33:56;;;;;;;4.00;2.70;;;;;;;11.61;62.81;97448.72;5050048;28;20036;-77
2023/03/23 03:36:26;;;;;;;4.10;2.75;;;;;;;11.62;62.59;97449.53;5027929;28;20033;-77
2023/03/23 03:38:51;;;;;;;4.05;2.95;;;;;;;11.67;62.99;97430.63;5053504;28;20025;-79
2023/03/23 03:41:19;;;;;;;7.80;2.70;;;;;;;11.64;62.58;97436.56;5046706;28;20029;-77
2023/03/23 03:43:46;;;;;;;3.67;2.75;;;;;;;11.62;62.40;97438.75;5041417;28;20486;-77
2023/03/23 03:46:11;;;;;;;5.00;3.20;;;;;;;11.57;62.56;97438.72;5046373;28;20040;-77
2023/03/23 03:48:38;;;;;;;5.45;2.97;;;;;;;11.59;62.51;97437.38;5066704;28;20032;-77
2023/03/23 03:51:03;;;;;;;4.82;2.95;;;;;;;11.63;62.27;97435.75;5036286;28;20037;-77
2023/03/23 03:53:31;;;;;;;4.03;2.58;;;;;;;11.59;62.34;97432.00;5019488;28;20031;-79
2023/03/23 03:55:59;;;;;;;3.15;2.50;;;;;;;11.62;62.60;97449.53;5032941;28;20036;-78
2023/03/23 03:58:31;;;;;;;3.90;2.75;;;;;;;11.55;63.12;97449.75;5045801;28;20032;-78
2023/03/23 04:01:17;;;;;;;4.10;3.25;;;;;;;11.55;63.48;97443.59;5046860;28;20051;-77
2023/03/23 04:03:43;;;;;;;3.00;2.70;;;;;;;11.57;62.41;97447.63;5046934;28;20063;-77
2023/03/23 04:06:24;;;;;;;3.03;2.72;;;;;;;11.56;62.07;97451.41;5047769;28;20056;-77
2023/03/23 04:08:50;;;;;;;7.80;3.10;;;;;;;11.58;62.75;97454.63;5043962;28;20032;-77
2023/03/23 04:11:16;;;;;;;4.57;3.25;;;;;;;11.56;62.84;97455.97;5025538;28;20050;-78
2023/03/23 04:13:41;;;;;;;5.32;2.97;;;;;;;11.51;63.31;97447.88;5047834;28;20037;-78
2023/03/23 04:16:21;;;;;;;4.70;3.13;;;;;;;11.49;63.38;97450.84;5038279;28;20387;-77
2023/03/23 04:18:48;;;;;;;4.55;3.30;;;;;;;11.54;62.94;97447.34;5047809;28;20062;-77
2023/03/23 04:21:16;;;;;;;4.28;2.88;;;;;;;11.51;62.85;97445.19;5042636;28;20020;-77
2023/03/23 04:23:43;;;;;;;4.47;2.80;;;;;;;11.42;63.27;97450.31;5042493;28;20040;-76
2023/03/23 04:26:12;;;;;;;5.68;3.08;;;;;;;11.50;63.45;97451.66;5047535;28;20024;-77
2023/03/23 04:28:40;;;;;;;5.00;3.10;;;;;;;11.49;63.68;97444.66;5047862;28;20090;-76
2023/03/23 04:31:28;;;;;;;4.32;3.35;;;;;;;11.47;63.50;97449.50;5048049;28;20039;-76
2023/03/23 04:34:19;;;;;;;5.13;3.38;;;;;;;11.45;63.58;97444.38;5034045;28;20029;-75
2023/03/23 04:36:47;;;;;;;5.00;3.20;;;;;;;11.46;63.58;97450.59;5030929;28;20384;-76
2023/03/23 04:39:17;;;;;;;4.45;3.63;;;;;;;11.42;63.47;97449.50;5037638;28;20035;-77
2023/03/23 04:41:45;;;;;;;4.72;3.22;;;;;;;11.49;62.94;97444.66;5040609;28;20033;-77
2023/03/23 04:44:17;;;;;;;5.28;3.15;;;;;;;11.42;63.90;97438.69;5014533;28;20032;-77
2023/03/23 04:46:49;;;;;;;5.00;2.97;;;;;;;11.50;63.51;97451.66;5030796;28;20040;-77
2023/03/23 04:49:21;;;;;;;4.43;2.70;;;;;;;11.46;63.34;97445.19;5027698;28;20082;-77
2023/03/23 04:51:50;;;;;;;4.43;2.80;;;;;;;11.53;63.13;97445.72;5021653;28;20040;-76
2023/03/23 04:54:24;;;;;;;3.97;2.85;;;;;;;11.45;63.62;97438.19;5029258;28;20117;-75
2023/03/23 04:56:53;;;;;;;6.72;3.30;;;;;;;11.43;63.44;97434.94;5040859;28;20379;-76
2023/03/23 04:59:18;;;;;;;3.42;2.72;;;;;;;11.39;64.07;97429.25;5058874;28;20036;-76
2023/03/23 05:01:51;;;;;;;3.72;3.10;;;;;;;11.45;63.99;97448.97;5037231;28;20043;-77
2023/03/23 05:04:18;;;;;;;5.97;3.25;;;;;;;11.41;63.94;97447.88;5057760;28;20029;-77
2023/03/23 05:06:55;;;;;;;5.00;2.90;;;;;;;11.43;64.34;97440.34;5046132;28;20029;-77
2023/03/23 05:09:25;;;;;;;4.70;3.13;;;;;;;11.43;64.15;97438.47;5031140;28;20033;-77
2023/03/23 05:11:51;;;;;;;7.22;4.55;;;;;;;11.41;63.65;97437.09;5058465;28;20616;-78
2023/03/23 05:14:16;;;;;;;5.32;3.70;;;;;;;11.39;63.65;97434.66;5039805;28;20445;-77
2023/03/23 05:16:48;;;;;;;5.00;3.45;;;;;;;11.50;64.00;97435.50;5054250;28;20175;-77
2023/03/23 05:19:15;;;;;;;4.38;3.30;;;;;;;11.49;63.57;97439.25;5023720;28;20545;-77
2023/03/23 05:21:41;;;;;;;5.40;3.30;;;;;;;11.55;63.50;97435.50;5028541;28;20120;-78
2023/03/23 05:24:07;;;;;;;4.55;3.08;;;;;;;11.45;63.60;97427.41;5030508;28;20037;-78
2023/03/23 05:26:33;;;;;;;5.72;3.33;;;;;;;11.47;63.65;97442.22;5028650;28;20031;-78
2023/03/23 05:29:04;;;;;;;6.95;3.78;;;;;;;11.48;63.55;97438.44;5046124;28;20060;-78
2023/03/23 05:31:42;;;;;;;5.55;3.30;;;;;;;11.46;62.98;97434.41;5050198;28;20033;-78
2023/03/23 05:34:07;;;;;;;3.10;2.70;;;;;;;11.58;63.07;97437.63;5035965;28;20700;-77
2023/03/23 05:36:38;;;;;;;4.22;3.83;;;;;;;11.57;63.29;97446.81;5048562;28;20385;-78
2023/03/23 05:39:10;;;;;;;3.75;3.20;;;;;;;11.59;63.13;97445.47;5028430;28;20473;-78
2023/03/23 05:41:55;;;;;;;4.82;4.18;;;;;;;11.54;63.47;97448.16;5047242;28;20029;-78
2023/03/23 05:44:24;;;;;;;5.22;3.53;;;;;;;11.55;63.14;97447.06;5049893;28;20037;-78
2023/03/23 05:46:52;;;;;;;7.07;2.78;;;;;;;11.57;62.88;97446.81;5052916;28;20048;-78
2023/03/23 05:49:17;;;;;;;5.43;2.92;;;;;;;11.64;63.20;97441.97;5050166;28;20028;-78
2023/03/23 05:51:49;;;;;;;4.65;2.53;;;;;;;11.62;63.40;97444.13;5009735;28;20390;-77
2023/03/23 05:54:15;;;;;;;3.85;2.80;;;;;;;11.62;63.37;97444.13;5029679;28;20394;-77
2023/03/23 05:56:42;;;;;;;6.53;4.07;;;;;;;11.61;63.40;97447.91;5027023;28;20021;-77
2023/03/23 05:59:10;;;;;;;6.35;3.13;;;;;;;11.71;62.60;97453.34;5048038;28;20058;-77
2023/03/23 06:01:38;;;;;;;5.13;3.55;;;;;;;11.73;62.25;97438.50;5050619;28;20028;-77
2023/03/23 06:04:04;;;;;;;3.15;2.30;;;;;;;11.88;62.65;97445.75;5025999;28;20150;-77
2023/03/23 06:06:40;;;;;;;2.80;2.50;;;;;;;11.85;61.74;97440.94;5044400;28;20020;-77
2023/03/23 06:09:08;;;;;;;3.78;2.50;;;;;;;11.90;62.55;97451.72;5045696;28;20041;-77
2023/03/23 06:11:44;;;;;;;3.10;2.30;;;;;;;11.90;62.36;97442.81;5034969;28;20108;-77
2023/03/23 06:14:26;;;;;;;3.42;2.33;;;;;;;11.97;61.70;97452.22;5049860;28;20135;-77
2023/03/23 06:16:51;;;;;;;2.97;2.38;;;;;;;11.91;61.87;97442.53;5036621;28;20060;-77
2023/03/23 06:19:16;;;;;;;4.63;2.30;;;;;;;12.02;61.72;97448.75;5035465;28;20051;-77
2023/03/23 06:21:55;;;;;;;5.18;2.90;;;;;;;11.94;62.16;97452.78;5062469;28;20036;-77
2023/03/23 06:24:32;;;;;;;3.97;2.40;;;;;;;11.86;62.76;97442.53;5053855;28;20040;-77
2023/03/23 06:26:59;;;;;;;2.95;2.60;;;;;;;11.97;61.95;97446.03;5019807;28;20127;-77
2023/03/23 06:29:25;;;;;;;3.58;2.60;;;;;;;11.96;62.14;97447.09;5041244;28;20028;-77
2023/03/23 06:31:57;;;;;;;5.47;2.90;;;;;;;11.99;62.06;97444.69;5036925;28;20434;-76
2023/03/23 06:34:24;;;;;;;5.07;2.40;;;;;;;11.95;62.39;97454.38;5046320;28;20746;-76
2023/03/23 06:37:09;;;;;;;5.60;2.83;;;;;;;11.91;62.54;97460.59;5040703;28;20596;-77
2023/03/23 06:39:48;;;;;;;6.78;2.95;;;;;;;11.93;62.89;97472.75;5048475;28;20131;-77
2023/03/23 06:42:23;;;;;;;9.02;3.20;;;;;;;12.02;63.08;97479.22;5039184;28;20029;-77
2023/03/23 06:44:57;;;;;;;6.47;2.75;;;;;;;11.93;63.14;97482.72;5049220;28;20035;-77
2023/03/23 06:47:24;;;;;;;3.75;2.47;;;;;;;11.95;63.67;97486.75;5042669;28;20071;-77
2023/03/23 06:49:50;;;;;;;3.80;2.42;;;;;;;11.86;64.88;97499.19;5042540;28;20044;-77
2023/03/23 06:52:24;;;;;;;4.35;2.78;;;;;;;11.95;65.22;97492.16;5027314;28;20119;-77
2023/03/23 06:54:50;;;;;;;4.28;2.58;;;;;;;11.78;66.22;97505.13;5042182;28;20063;-77
2023/03/23 06:57:18;;;;;;;3.58;2.50;;;;;;;11.87;65.05;97517.00;5033214;28;20020;-77
2023/03/23 06:59:45;;;;;;;5.10;2.40;;;;;;;11.74;67.25;97506.72;5042612;28;20403;-76
2023/03/23 07:02:13;;;;;;;6.95;3.47;;;;;;;11.81;66.75;97506.47;5047942;28;20098;-77
2023/03/23 07:04:40;;;;;;;6.25;3.75;;;;;;;11.89;66.90;97509.44;5031087;28;20060;-77
2023/03/23 07:07:13;;;;;;;4.55;3.85;;;;;;;11.75;68.43;97503.78;5029311;28;20021;-76
2023/03/23 07:09:47;;;;;;;7.35;5.53;;;;;;;11.86;68.03;97504.56;5043560;28;20086;-76
2023/03/23 07:12:15;;;;;;;8.95;5.25;;;;;;;11.76;67.22;97504.59;5045439;28;20111;-76
2023/03/23 07:14:45;;;;;;;9.63;5.47;;;;;;;11.85;67.56;97512.94;5032657;28;20017;-76
2023/03/23 07:17:11;;;;;;;5.07;4.25;;;;;;;11.76;68.44;97516.16;5019029;28;20075;-76
2023/03/23 07:19:41;;;;;;;3.33;3.03;;;;;;;11.92;68.31;97513.50;5048963;28;20506;-74
2023/03/23 07:22:09;;;;;;;4.03;3.58;;;;;;;11.87;68.48;97508.91;5026404;28;20437;-76
2023/03/23 07:24:36;;;;;;;6.18;4.70;;;;;;;11.91;68.59;97512.69;5055107;28;20050;-76
2023/03/23 07:27:11;;;;;;;12.50;8.15;;;;;;;11.97;68.68;97516.19;5026197;28;20553;-76
2023/03/23 07:29:38;;;;;;;15.32;10.32;;;;;;;11.82;68.79;97526.97;5031515;28;20041;-77
2023/03/23 07:32:12;;;;;;;20.75;13.60;;;;;;;12.07;68.89;97514.28;5031528;28;20111;-76
2023/03/23 07:34:38;;;;;;;9.70;7.57;;;;;;;11.91;68.65;97517.25;5025693;28;20144;-77
2023/03/23 07:37:32;;;;;;;8.25;4.93;;;;;;;11.81;69.62;97515.34;5041556;28;20405;-76
2023/03/23 07:39:57;;;;;;;7.75;6.35;;;;;;;11.99;69.13;97520.25;5042313;28;20033;-75
2023/03/23 07:42:22;;;;;;;5.68;5.18;;;;;;;12.02;68.96;97525.09;5031081;28;20028;-76
2023/03/23 07:44:55;;;;;;;6.35;5.07;;;;;;;11.86;69.69;97526.16;5063186;28;20486;-76
2023/03/23 07:47:20;;;;;;;6.80;5.20;;;;;;;11.98;68.96;97534.81;5024911;28;20043;-76
2023/03/23 07:49:47;;;;;;;7.10;6.32;;;;;;;11.87;69.79;97543.97;5042271;28;20028;-76
2023/03/23 07:52:23;;;;;;;6.47;5.18;;;;;;;11.87;70.46;97533.19;5031509;28;20040;-76
2023/03/23 07:54:49;;;;;;;7.57;5.75;;;;;;;11.69;70.67;97520.22;5041938;28;20028;-74
2023/03/23 07:57:24;;;;;;;6.57;5.47;;;;;;;11.73;70.62;97532.09;5027802;28;20036;-74
2023/03/23 07:59:52;;;;;;;9.27;4.50;;;;;;;11.60;70.23;97537.94;5041032;28;20429;-75
2023/03/23 08:02:17;;;;;;;5.53;5.03;;;;;;;11.70;70.37;97532.63;5046312;28;20025;-74
2023/03/23 08:04:44;;;;;;;6.57;4.43;;;;;;;11.81;70.21;97542.34;5035765;28;20033;-74
2023/03/23 08:07:28;;;;;;;6.90;5.28;;;;;;;11.82;70.48;97551.25;5032851;28;20035;-74
2023/03/23 08:10:17;;;;;;;7.13;6.43;;;;;;;11.79;70.90;97547.19;5014679;28;20502;-74
2023/03/23 08:12:54;;;;;;;8.52;6.68;;;;;;;11.81;71.67;97555.81;5042416;28;20135;-75
2023/03/23 08:15:23;;;;;;;8.52;5.97;;;;;;;11.85;70.96;97551.53;5030098;28;20041;-73
2023/03/23 08:17:58;;;;;;;8.02;5.40;;;;;;;11.96;69.91;97547.75;5040650;28;20478;-74
2023/03/23 08:20:55;;;;;;;7.15;5.93;;;;;;;11.96;71.26;97553.16;5045337;28;20110;-74
2023/03/23 08:23:36;;;;;;;6.43;5.82;;;;;;;12.07;70.30;97549.38;5043122;28;20033;-73
2023/03/23 08:26:19;;;;;;;5.90;5.40;;;;;;;12.18;69.76;97548.28;5033103;28;20029;-74
2023/03/23 08:28:45;;;;;;;6.20;5.60;;;;;;;12.06;69.88;97553.19;5047483;28;20444;-74
2023/03/23 08:31:48;;;;;;;6.32;5.82;;;;;;;12.15;70.72;97567.75;5039810;28;20072;-74
2023/03/23 08:34:32;;;;;;;4.70;4.38;;;;;;;12.20;69.73;97561.53;5049381;28;20079;-77
2023/03/23 08:37:08;;;;;;;;;;;;;;;12.16;69.94;97563.94;5235226;22;20055;-75
2023/03/23 08:39:40;;;;;;;3.78;3.47;;;;;;;12.25;69.59;97567.72;5049510;28;19916;-76
2023/03/23 08:42:24;;;;;;;4.60;4.28;;;;;;;12.35;69.72;97556.94;5074631;28;20547;-74
2023/03/23 08:45:22;;;;;;;6.10;4.07;;;;;;;12.46;69.58;97557.75;5040558;28;20398;-76
2023/03/23 08:47:59;;;;;;;3.97;3.67;;;;;;;12.37;69.81;97557.47;5053360;28;20041;-76
2023/03/23 08:50:39;;;;;;;5.60;4.60;;;;;;;12.38;70.58;97561.00;5036134;28;20036;-76
2023/03/23 08:53:30;;;;;;;5.07;4.30;;;;;;;12.57;69.76;97574.75;5051875;28;20036;-76
2023/03/23 08:56:13;;;;;;;4.75;4.00;;;;;;;12.59;69.51;97567.19;5025316;28;20033;-76
2023/03/23 08:58:47;;;;;;;5.80;5.30;;;;;;;12.48;70.78;97553.66;5039648;28;20032;-76
2023/03/23 09:01:30;;;;;;;5.88;5.45;;;;;;;12.42;70.57;97562.88;5035345;28;20036;-76
2023/03/23 09:04:05;;;;;;;9.98;7.00;;;;;;;12.57;69.87;97561.25;5033386;28;20028;-77
2023/03/23 09:06:51;;;;;;;9.45;8.55;;;;;;;12.49;69.68;97563.41;5026288;28;20405;-77
2023/03/23 09:09:16;;;;;;;6.22;5.72;;;;;;;12.60;70.24;97568.81;5026497;28;20123;-77
2023/03/23 09:11:42;;;;;;;6.55;5.90;;;;;;;12.66;70.14;97570.41;5055299;28;20032;-76
2023/03/23 09:14:08;;;;;;;6.75;4.50;;;;;;;12.69;69.87;97572.56;5040400;28;20440;-77
2023/03/23 09:16:34;;;;;;;5.88;5.25;;;;;;;12.87;70.05;97578.22;5035211;28;20100;-76
2023/03/23 09:19:00;;;;;;;6.07;5.43;;;;;;;12.92;70.33;97580.91;5032842;28;20067;-77
2023/03/23 09:21:27;;;;;;;5.80;5.30;;;;;;;13.10;69.07;97574.09;5017476;28;20025;-74
2023/03/23 09:23:52;;;;;;;6.32;5.82;;;;;;;13.21;69.12;97570.28;5038627;28;20509;-76
2023/03/23 09:26:18;;;;;;;7.18;6.43;;;;;;;13.35;69.98;97565.91;5032066;28;20021;-77
2023/03/23 09:28:44;;;;;;;6.65;6.20;;;;;;;13.41;69.47;97575.63;5035956;28;20040;-77
2023/03/23 09:31:10;;;;;;;5.03;4.40;;;;;;;13.50;67.61;97587.47;5055966;28;20024;-77
2023/03/23 09:33:36;;;;;;;4.43;3.78;;;;;;;13.36;67.65;97572.94;5043801;28;20033;-77
2023/03/23 09:36:02;;;;;;;7.72;5.90;;;;;;;13.82;67.48;97576.19;5036770;28;20032;-77
2023/03/23 09:38:32;;;;;;;10.88;7.22;;;;;;;13.90;68.27;97572.09;5037185;28;20302;-77
2023/03/23 09:41:01;;;;;;;11.65;7.13;;;;;;;13.73;66.16;97581.41;5021084;28;20112;-77
2023/03/23 09:43:45;;;;;;;6.43;3.90;;;;;;;13.70;66.87;97573.00;5020279;28;20048;-74
2023/03/23 09:46:46;;;;;;;11.52;5.07;;;;;;;13.95;67.02;97570.19;5046880;28;20072;-76
2023/03/23 09:49:16;;;;;;;5.25;4.57;;;;;;;13.77;66.62;97563.50;5037025;28;20041;-77
2023/03/23 09:51:56;;;;;;;3.33;2.72;;;;;;;13.76;66.66;97574.63;5036979;28;20037;-77
2023/03/23 09:54:44;;;;;;;3.70;2.55;;;;;;;13.82;66.66;97568.91;5036780;28;20037;-77
2023/03/23 09:57:16;;;;;;;3.88;2.88;;;;;;;13.69;65.06;97580.34;5037004;28;20033;-77
2023/03/23 10:00:31;;;;;;;5.50;3.05;;;;;;;13.64;66.61;97584.97;5051695;28;20405;-77
2023/03/23 10:03:07;;;;;;;3.15;2.80;;;;;;;13.62;65.79;97582.56;5052233;28;20165;-77
2023/03/23 10:05:45;;;;;;;5.45;2.20;;;;;;;13.52;65.79;97593.41;5040167;28;20032;-77
2023/03/23 10:08:29;;;;;;;4.68;2.65;;;;;;;13.52;66.35;97604.25;5056269;28;20044;-77
2023/03/23 10:11:07;;;;;;;5.05;2.67;;;;;;;13.38;66.27;97597.00;5056632;28;20043;-77
2023/03/23 10:13:57;;;;;;;2.58;2.38;;;;;;;13.38;66.23;97614.03;5039609;28;20457;-77
2023/03/23 10:16:25;;;;;;;6.00;2.67;;;;;;;13.39;65.05;97610.25;5074662;28;20105;-77
2023/03/23 10:19:18;;;;;;;4.88;2.63;;;;;;;13.48;65.89;97616.72;5039559;28;20424;-76
2023/03/23 10:21:51;;;;;;;3.30;2.03;;;;;;;13.39;64.80;97615.66;5056281;28;20032;-77
2023/03/23 10:24:19;;;;;;;2.83;2.33;;;;;;;13.36;65.13;97605.38;5053029;28;20033;-76
2023/03/23 10:26:48;;;;;;;5.80;1.88;;;;;;;13.34;64.74;97612.97;5056219;28;20471;-76
2023/03/23 10:29:30;;;;;;;3.33;2.10;;;;;;;13.45;63.29;97622.66;5055729;28;20051;-77
2023/03/23 10:32:01;;;;;;;2.22;2.00;;;;;;;13.40;63.93;97617.25;5043254;28;20487;-76
2023/03/23 10:34:27;;;;;;;3.67;2.00;;;;;;;13.41;63.23;97627.00;5043066;28;20115;-76
2023/03/23 10:37:10;;;;;;;2.80;2.20;;;;;;;13.27;64.38;97617.88;5073502;28;20512;-77
2023/03/23 10:39:54;;;;;;;3.13;2.17;;;;;;;13.32;64.95;97633.25;5039335;28;20131;-76
2023/03/23 10:42:28;;;;;;;5.15;1.92;;;;;;;13.17;65.91;97636.81;5038533;28;20029;-76
2023/03/23 10:44:56;;;;;;;2.97;1.85;;;;;;;13.26;65.12;97643.28;5055629;28;20039;-76
2023/03/23 10:47:22;;;;;;;3.20;2.03;;;;;;;13.30;65.76;97644.38;5055741;28;20025;-76
2023/03/23 10:49:50;;;;;;;2.08;1.40;;;;;;;13.36;66.67;97637.84;5055786;28;20474;-76
2023/03/23 10:52:35;;;;;;;1.73;1.50;;;;;;;13.33;66.87;97632.16;5035722;28;20219;-76
2023/03/23 10:55:06;;;;;;;2.28;1.60;;;;;;;13.31;67.49;97639.75;5002684;28;20036;-76
2023/03/23 10:57:33;;;;;;;1.90;1.52;;;;;;;13.32;66.06;97647.59;5035810;28;20029;-76
2023/03/23 11:00:06;;;;;;;2.53;1.60;;;;;;;13.34;66.91;97634.63;5035663;28;20033;-76
2023/03/23 11:02:40;;;;;;;2.20;1.88;;;;;;;13.24;67.93;97634.63;5053751;28;20466;-76
2023/03/23 11:05:15;;;;;;;2.15;1.60;;;;;;;13.22;67.41;97642.22;5035477;28;20115;-76
2023/03/23 11:07:41;;;;;;;1.60;1.50;;;;;;;13.22;67.23;97636.81;5037476;28;20080;-77
2023/03/23 11:10:22;;;;;;;2.03;1.50;;;;;;;13.37;67.88;97638.66;5014646;28;20055;-76
2023/03/23 11:12:47;;;;;;;2.53;1.77;;;;;;;13.32;67.86;97617.84;5053729;28;20490;-76
2023/03/23 11:15:25;;;;;;;3.30;2.10;;;;;;;13.49;66.79;97636.47;5029499;28;20021;-76
2023/03/23 11:18:07;;;;;;;2.25;2.00;;;;;;;13.88;66.46;97623.00;5037331;28;20285;-77
2023/03/23 11:20:44;;;;;;;3.22;2.50;;;;;;;14.05;66.67;97628.88;5039179;28;20055;-76
2023/03/23 11:23:15;;;;;;;2.63;1.90;;;;;;;13.94;66.90;97632.69;5041527;28;20049;-76
2023/03/23 11:25:54;;;;;;;2.50;1.92;;;;;;;13.93;67.00;97636.50;5036847;28;20032;-76
2023/03/23 11:28:20;;;;;;;2.75;2.08;;;;;;;13.87;66.93;97643.84;5035108;28;20036;-76
2023/03/23 11:30:46;;;;;;;3.00;2.20;;;;;;;13.64;67.17;97647.19;5017919;28;20083;-76
2023/03/23 11:33:14;;;;;;;2.30;2.05;;;;;;;13.45;67.90;97657.81;5029000;28;20039;-76
2023/03/23 11:35:44;;;;;;;3.38;2.33;;;;;;;13.61;68.41;97659.38;5069104;28;20040;-76
2023/03/23 11:38:17;;;;;;;3.10;1.75;;;;;;;13.32;67.66;97669.25;5018426;28;20033;-76
2023/03/23 11:40:48;;;;;;;2.42;1.75;;;;;;;13.25;67.97;97662.50;5018293;28;20041;-76
2023/03/23 11:43:15;;;;;;;2.72;2.20;;;;;;;13.29;67.93;97661.66;5018125;28;20112;-76
2023/03/23 11:45:47;;;;;;;3.13;1.95;;;;;;;13.65;67.79;97646.91;5034613;28;20390;-76
2023/03/23 11:48:31;;;;;;;7.68;3.15;;;;;;;13.73;67.75;97627.41;5052415;28;20466;-77
2023/03/23 11:51:02;;;;;;;2.05;1.50;;;;;;;13.57;67.52;97633.97;5052502;28;20078;-77
2023/03/23 11:53:45;;;;;;;2.47;1.95;;;;;;;13.44;68.70;97623.72;5034471;28;20033;-76
2023/03/23 11:56:16;;;;;;;4.18;2.17;;;;;;;13.48;68.75;97635.66;5018063;28;20040;-76